sensor_id;sensor_type;location;lat;lon;timestamp;P1;durP1;ratioP1;P2;durP2;ratioP2
46931;SDS011;32670;51.464;11.964;2024-01-11T00:00:42;6.27;;;5.67;;
46931;SDS011;32670;51.464;11.964;2024-01-11T00:03:07;6.97;;;5.80;;
46931;SDS011;32670;51.464;11.964;2024-01-11T00:05:34;8.90;;;5.90;;
46931;SDS011;32670;51.464;11.964;2024-01-11T00:08:00;6.30;;;5.70;;
46931;SDS011;32670;51.464;11.964;2024-01-11T00:10:25;6.40;;;5.50;;
46931;SDS011;32670;51.464;11.964;2024-01-11T00:12:51;6.40;;;5.80;;
46931;SDS011;32670;51.464;11.964;2024-01-11T00:15:16;6.83;;;5.33;;
46931;SDS011;32670;51.464;11.964;2024-01-11T00:17:42;6.53;;;5.33;;
46931;SDS011;32670;51.464;11.964;2024-01-11T00:20:08;8.77;;;5.70;;
46931;SDS011;32670;51.464;11.964;2024-01-11T00:22:34;5.90;;;5.30;;
46931;SDS011;32670;51.464;11.964;2024-01-11T00:24:59;5.70;;;5.03;;
46931;SDS011;32670;51.464;11.964;2024-01-11T00:27:25;7.27;;;5.40;;
46931;SDS011;32670;51.464;11.964;2024-01-11T00:29:50;7.97;;;5.33;;
46931;SDS011;32670;51.464;11.964;2024-01-11T00:32:18;5.90;;;5.30;;
46931;SDS011;32670;51.464;11.964;2024-01-11T00:34:43;5.53;;;4.97;;
46931;SDS011;32670;51.464;11.964;2024-01-11T00:37:09;5.50;;;5.00;;
46931;SDS011;32670;51.464;11.964;2024-01-11T00:39:34;6.33;;;5.03;;
46931;SDS011;32670;51.464;11.964;2024-01-11T00:41:59;6.47;;;5.27;;
46931;SDS011;32670;51.464;11.964;2024-01-11T00:44:25;6.10;;;5.27;;
46931;SDS011;32670;51.464;11.964;2024-01-11T00:46:50;5.33;;;4.83;;
46931;SDS011;32670;51.464;11.964;2024-01-11T00:49:16;6.67;;;5.77;;
46931;SDS011;32670;51.464;11.964;2024-01-11T00:51:41;6.33;;;5.70;;
46931;SDS011;32670;51.464;11.964;2024-01-11T00:54:07;5.77;;;5.10;;
46931;SDS011;32670;51.464;11.964;2024-01-11T00:56:32;5.07;;;4.60;;
46931;SDS011;32670;51.464;11.964;2024-01-11T00:58:58;6.03;;;5.07;;
46931;SDS011;32670;51.464;11.964;2024-01-11T01:01:23;5.43;;;4.90;;
46931;SDS011;32670;51.464;11.964;2024-01-11T01:03:49;5.33;;;4.83;;
46931;SDS011;32670;51.464;11.964;2024-01-11T01:06:14;5.70;;;4.97;;
46931;SDS011;32670;51.464;11.964;2024-01-11T01:08:40;5.27;;;4.77;;
46931;SDS011;32670;51.464;11.964;2024-01-11T01:11:05;6.27;;;5.00;;
46931;SDS011;32670;51.464;11.964;2024-01-11T01:13:31;5.70;;;4.87;;
46931;SDS011;32670;51.464;11.964;2024-01-11T01:15:57;5.20;;;4.70;;
46931;SDS011;32670;51.464;11.964;2024-01-11T01:18:23;5.83;;;4.90;;
46931;SDS011;32670;51.464;11.964;2024-01-11T01:20:48;6.77;;;5.10;;
46931;SDS011;32670;51.464;11.964;2024-01-11T01:23:13;6.10;;;5.50;;
46931;SDS011;32670;51.464;11.964;2024-01-11T01:25:39;5.10;;;4.63;;
46931;SDS011;32670;51.464;11.964;2024-01-11T01:28:04;8.80;;;4.93;;
46931;SDS011;32670;51.464;11.964;2024-01-11T01:30:30;8.17;;;6.77;;
46931;SDS011;32670;51.464;11.964;2024-01-11T01:32:55;8.53;;;6.47;;
46931;SDS011;32670;51.464;11.964;2024-01-11T01:35:21;11.07;;;7.10;;
46931;SDS011;32670;51.464;11.964;2024-01-11T01:37:47;10.07;;;6.47;;
46931;SDS011;32670;51.464;11.964;2024-01-11T01:40:12;10.07;;;6.30;;
46931;SDS011;32670;51.464;11.964;2024-01-11T01:42:45;8.23;;;6.00;;
46931;SDS011;32670;51.464;11.964;2024-01-11T01:45:10;8.63;;;6.10;;
46931;SDS011;32670;51.464;11.964;2024-01-11T01:47:36;6.97;;;5.50;;
46931;SDS011;32670;51.464;11.964;2024-01-11T01:50:05;8.27;;;6.47;;
46931;SDS011;32670;51.464;11.964;2024-01-11T01:52:32;9.13;;;6.00;;
46931;SDS011;32670;51.464;11.964;2024-01-11T01:54:59;7.73;;;6.03;;
46931;SDS011;32670;51.464;11.964;2024-01-11T01:57:27;10.03;;;6.13;;
46931;SDS011;32670;51.464;11.964;2024-01-11T01:59:54;7.33;;;5.43;;
46931;SDS011;32670;51.464;11.964;2024-01-11T02:02:20;7.30;;;6.00;;
46931;SDS011;32670;51.464;11.964;2024-01-11T02:04:46;7.13;;;5.97;;
46931;SDS011;32670;51.464;11.964;2024-01-11T02:07:11;6.80;;;5.80;;
46931;SDS011;32670;51.464;11.964;2024-01-11T02:09:38;5.77;;;5.27;;
46931;SDS011;32670;51.464;11.964;2024-01-11T02:12:05;6.47;;;5.57;;
46931;SDS011;32670;51.464;11.964;2024-01-11T02:14:31;6.30;;;5.50;;
46931;SDS011;32670;51.464;11.964;2024-01-11T02:16:57;6.73;;;5.27;;
46931;SDS011;32670;51.464;11.964;2024-01-11T02:19:22;9.33;;;5.70;;
46931;SDS011;32670;51.464;11.964;2024-01-11T02:21:49;6.43;;;5.43;;
46931;SDS011;32670;51.464;11.964;2024-01-11T02:24:16;6.00;;;5.30;;
46931;SDS011;32670;51.464;11.964;2024-01-11T02:27:01;10.00;;;6.23;;
46931;SDS011;32670;51.464;11.964;2024-01-11T02:29:29;7.90;;;5.43;;
46931;SDS011;32670;51.464;11.964;2024-01-11T02:31:55;5.90;;;5.23;;
46931;SDS011;32670;51.464;11.964;2024-01-11T02:34:26;6.83;;;5.20;;
46931;SDS011;32670;51.464;11.964;2024-01-11T02:36:52;5.90;;;5.17;;
46931;SDS011;32670;51.464;11.964;2024-01-11T02:39:20;7.07;;;6.03;;
46931;SDS011;32670;51.464;11.964;2024-01-11T02:41:48;7.70;;;5.20;;
46931;SDS011;32670;51.464;11.964;2024-01-11T02:44:15;7.53;;;5.47;;
46931;SDS011;32670;51.464;11.964;2024-01-11T02:46:41;6.27;;;5.37;;
46931;SDS011;32670;51.464;11.964;2024-01-11T02:49:07;6.43;;;5.30;;
46931;SDS011;32670;51.464;11.964;2024-01-11T02:51:32;5.67;;;5.10;;
46931;SDS011;32670;51.464;11.964;2024-01-11T02:53:58;5.50;;;5.00;;
46931;SDS011;32670;51.464;11.964;2024-01-11T02:56:23;6.13;;;5.53;;
46931;SDS011;32670;51.464;11.964;2024-01-11T02:58:49;7.73;;;5.40;;
46931;SDS011;32670;51.464;11.964;2024-01-11T03:01:15;6.03;;;4.83;;
46931;SDS011;32670;51.464;11.964;2024-01-11T03:03:40;5.73;;;5.00;;
46931;SDS011;32670;51.464;11.964;2024-01-11T03:06:06;7.17;;;4.97;;
46931;SDS011;32670;51.464;11.964;2024-01-11T03:08:32;5.10;;;4.60;;
46931;SDS011;32670;51.464;11.964;2024-01-11T03:10:57;6.27;;;4.90;;
46931;SDS011;32670;51.464;11.964;2024-01-11T03:13:23;5.70;;;4.70;;
46931;SDS011;32670;51.464;11.964;2024-01-11T03:15:48;6.70;;;5.00;;
46931;SDS011;32670;51.464;11.964;2024-01-11T03:18:14;5.87;;;5.10;;
46931;SDS011;32670;51.464;11.964;2024-01-11T03:20:39;6.40;;;4.87;;
46931;SDS011;32670;51.464;11.964;2024-01-11T03:23:05;6.00;;;4.60;;
46931;SDS011;32670;51.464;11.964;2024-01-11T03:25:30;4.87;;;4.40;;
46931;SDS011;32670;51.464;11.964;2024-01-11T03:27:56;5.93;;;4.57;;
46931;SDS011;32670;51.464;11.964;2024-01-11T03:30:23;5.00;;;4.47;;
46931;SDS011;32670;51.464;11.964;2024-01-11T03:32:49;5.10;;;4.53;;
46931;SDS011;32670;51.464;11.964;2024-01-11T03:35:14;5.23;;;4.60;;
46931;SDS011;32670;51.464;11.964;2024-01-11T03:37:40;5.27;;;4.77;;
46931;SDS011;32670;51.464;11.964;2024-01-11T03:40:05;5.03;;;4.43;;
46931;SDS011;32670;51.464;11.964;2024-01-11T03:42:31;6.23;;;5.03;;
46931;SDS011;32670;51.464;11.964;2024-01-11T03:44:57;5.43;;;4.47;;
46931;SDS011;32670;51.464;11.964;2024-01-11T03:47:22;5.00;;;4.23;;
46931;SDS011;32670;51.464;11.964;2024-01-11T03:49:48;6.77;;;5.07;;
46931;SDS011;32670;51.464;11.964;2024-01-11T03:52:13;5.57;;;4.60;;
46931;SDS011;32670;51.464;11.964;2024-01-11T03:54:38;4.80;;;4.40;;
46931;SDS011;32670;51.464;11.964;2024-01-11T03:57:05;5.20;;;4.70;;
46931;SDS011;32670;51.464;11.964;2024-01-11T03:59:31;4.87;;;4.47;;
46931;SDS011;32670;51.464;11.964;2024-01-11T04:01:57;5.17;;;4.67;;
46931;SDS011;32670;51.464;11.964;2024-01-11T04:04:23;4.87;;;4.47;;
46931;SDS011;32670;51.464;11.964;2024-01-11T04:06:48;4.33;;;3.97;;
46931;SDS011;32670;51.464;11.964;2024-01-11T04:09:14;4.63;;;4.23;;
46931;SDS011;32670;51.464;11.964;2024-01-11T04:11:40;4.67;;;4.27;;
46931;SDS011;32670;51.464;11.964;2024-01-11T04:14:05;4.77;;;4.30;;
46931;SDS011;32670;51.464;11.964;2024-01-11T04:16:31;6.90;;;4.43;;
46931;SDS011;32670;51.464;11.964;2024-01-11T04:18:56;4.80;;;4.33;;
46931;SDS011;32670;51.464;11.964;2024-01-11T04:21:22;4.67;;;4.27;;
46931;SDS011;32670;51.464;11.964;2024-01-11T04:23:49;5.13;;;4.03;;
46931;SDS011;32670;51.464;11.964;2024-01-11T04:26:15;4.60;;;4.10;;
46931;SDS011;32670;51.464;11.964;2024-01-11T04:28:40;4.40;;;4.00;;
46931;SDS011;32670;51.464;11.964;2024-01-11T04:31:08;5.03;;;4.37;;
46931;SDS011;32670;51.464;11.964;2024-01-11T04:33:33;5.47;;;4.50;;
46931;SDS011;32670;51.464;11.964;2024-01-11T04:35:59;4.43;;;4.03;;
46931;SDS011;32670;51.464;11.964;2024-01-11T04:38:24;5.00;;;4.50;;
46931;SDS011;32670;51.464;11.964;2024-01-11T04:40:49;5.10;;;4.10;;
46931;SDS011;32670;51.464;11.964;2024-01-11T04:43:15;4.60;;;4.10;;
46931;SDS011;32670;51.464;11.964;2024-01-11T04:45:40;4.63;;;4.23;;
46931;SDS011;32670;51.464;11.964;2024-01-11T04:48:06;4.30;;;3.90;;
46931;SDS011;32670;51.464;11.964;2024-01-11T04:50:31;4.80;;;4.40;;
46931;SDS011;32670;51.464;11.964;2024-01-11T04:52:57;4.73;;;3.83;;
46931;SDS011;32670;51.464;11.964;2024-01-11T04:55:22;4.60;;;4.17;;
46931;SDS011;32670;51.464;11.964;2024-01-11T04:57:48;4.40;;;4.00;;
46931;SDS011;32670;51.464;11.964;2024-01-11T05:00:13;6.37;;;4.70;;
46931;SDS011;32670;51.464;11.964;2024-01-11T05:02:39;4.40;;;4.00;;
46931;SDS011;32670;51.464;11.964;2024-01-11T05:05:04;4.90;;;4.13;;
46931;SDS011;32670;51.464;11.964;2024-01-11T05:07:30;4.40;;;4.00;;
46931;SDS011;32670;51.464;11.964;2024-01-11T05:09:55;3.90;;;3.60;;
46931;SDS011;32670;51.464;11.964;2024-01-11T05:12:21;4.10;;;3.67;;
46931;SDS011;32670;51.464;11.964;2024-01-11T05:14:46;7.40;;;3.87;;
46931;SDS011;32670;51.464;11.964;2024-01-11T05:17:12;4.80;;;3.63;;
46931;SDS011;32670;51.464;11.964;2024-01-11T05:19:38;5.50;;;4.00;;
46931;SDS011;32670;51.464;11.964;2024-01-11T05:22:03;4.17;;;3.77;;
46931;SDS011;32670;51.464;11.964;2024-01-11T05:24:29;5.37;;;4.60;;
46931;SDS011;32670;51.464;11.964;2024-01-11T05:26:55;6.87;;;5.03;;
46931;SDS011;32670;51.464;11.964;2024-01-11T05:29:20;11.70;;;4.77;;
46931;SDS011;32670;51.464;11.964;2024-01-11T05:31:45;4.60;;;4.20;;
46931;SDS011;32670;51.464;11.964;2024-01-11T05:34:11;4.53;;;4.13;;
46931;SDS011;32670;51.464;11.964;2024-01-11T05:36:37;5.17;;;4.37;;
46931;SDS011;32670;51.464;11.964;2024-01-11T05:39:03;5.47;;;4.50;;
46931;SDS011;32670;51.464;11.964;2024-01-11T05:41:28;4.30;;;3.77;;
46931;SDS011;32670;51.464;11.964;2024-01-11T05:43:54;9.07;;;4.40;;
46931;SDS011;32670;51.464;11.964;2024-01-11T05:46:19;5.60;;;4.47;;
46931;SDS011;32670;51.464;11.964;2024-01-11T05:48:45;4.93;;;4.17;;
46931;SDS011;32670;51.464;11.964;2024-01-11T05:51:10;4.53;;;4.10;;
46931;SDS011;32670;51.464;11.964;2024-01-11T05:53:36;4.80;;;4.27;;
46931;SDS011;32670;51.464;11.964;2024-01-11T05:56:01;5.07;;;4.00;;
46931;SDS011;32670;51.464;11.964;2024-01-11T05:58:31;7.83;;;4.30;;
46931;SDS011;32670;51.464;11.964;2024-01-11T06:00:57;9.17;;;5.07;;
46931;SDS011;32670;51.464;11.964;2024-01-11T06:03:22;8.23;;;5.50;;
46931;SDS011;32670;51.464;11.964;2024-01-11T06:05:48;6.07;;;4.70;;
46931;SDS011;32670;51.464;11.964;2024-01-11T06:08:13;6.90;;;5.43;;
46931;SDS011;32670;51.464;11.964;2024-01-11T06:10:39;11.70;;;8.73;;
46931;SDS011;32670;51.464;11.964;2024-01-11T06:13:04;11.83;;;10.10;;
46931;SDS011;32670;51.464;11.964;2024-01-11T06:15:30;14.77;;;11.87;;
46931;SDS011;32670;51.464;11.964;2024-01-11T06:17:55;15.97;;;13.70;;
46931;SDS011;32670;51.464;11.964;2024-01-11T06:20:21;16.37;;;14.70;;
46931;SDS011;32670;51.464;11.964;2024-01-11T06:22:46;17.37;;;15.23;;
46931;SDS011;32670;51.464;11.964;2024-01-11T06:25:12;18.67;;;16.23;;
46931;SDS011;32670;51.464;11.964;2024-01-11T06:27:37;18.83;;;16.93;;
46931;SDS011;32670;51.464;11.964;2024-01-11T06:30:03;18.20;;;16.40;;
46931;SDS011;32670;51.464;11.964;2024-01-11T06:32:29;19.63;;;17.60;;
46931;SDS011;32670;51.464;11.964;2024-01-11T06:34:54;20.30;;;18.00;;
46931;SDS011;32670;51.464;11.964;2024-01-11T06:37:20;20.47;;;18.10;;
46931;SDS011;32670;51.464;11.964;2024-01-11T06:39:45;20.10;;;17.97;;
46931;SDS011;32670;51.464;11.964;2024-01-11T06:42:11;23.77;;;17.77;;
46931;SDS011;32670;51.464;11.964;2024-01-11T06:44:36;20.53;;;17.80;;
46931;SDS011;32670;51.464;11.964;2024-01-11T06:47:02;22.60;;;18.80;;
46931;SDS011;32670;51.464;11.964;2024-01-11T06:49:29;21.90;;;19.17;;
46931;SDS011;32670;51.464;11.964;2024-01-11T06:51:54;24.23;;;18.87;;
46931;SDS011;32670;51.464;11.964;2024-01-11T06:54:19;21.83;;;18.73;;
46931;SDS011;32670;51.464;11.964;2024-01-11T06:56:45;22.17;;;19.80;;
46931;SDS011;32670;51.464;11.964;2024-01-11T06:59:10;21.13;;;18.93;;
46931;SDS011;32670;51.464;11.964;2024-01-11T07:01:36;21.10;;;18.83;;
46931;SDS011;32670;51.464;11.964;2024-01-11T07:04:01;21.93;;;19.57;;
46931;SDS011;32670;51.464;11.964;2024-01-11T07:06:27;35.43;;;19.07;;
46931;SDS011;32670;51.464;11.964;2024-01-11T07:08:52;29.47;;;17.53;;
46931;SDS011;32670;51.464;11.964;2024-01-11T07:11:18;23.83;;;16.83;;
46931;SDS011;32670;51.464;11.964;2024-01-11T07:13:43;22.70;;;16.50;;
46931;SDS011;32670;51.464;11.964;2024-01-11T07:16:09;19.83;;;16.87;;
46931;SDS011;32670;51.464;11.964;2024-01-11T07:18:34;25.60;;;15.70;;
46931;SDS011;32670;51.464;11.964;2024-01-11T07:21:00;18.03;;;16.17;;
46931;SDS011;32670;51.464;11.964;2024-01-11T07:23:29;19.00;;;15.53;;
46931;SDS011;32670;51.464;11.964;2024-01-11T07:25:54;17.73;;;14.90;;
46931;SDS011;32670;51.464;11.964;2024-01-11T07:28:20;18.17;;;14.60;;
46931;SDS011;32670;51.464;11.964;2024-01-11T07:30:50;17.37;;;14.07;;
46931;SDS011;32670;51.464;11.964;2024-01-11T07:33:16;17.50;;;14.10;;
46931;SDS011;32670;51.464;11.964;2024-01-11T07:35:41;17.07;;;13.80;;
46931;SDS011;32670;51.464;11.964;2024-01-11T07:38:07;18.93;;;14.30;;
46931;SDS011;32670;51.464;11.964;2024-01-11T07:40:32;15.47;;;13.00;;
46931;SDS011;32670;51.464;11.964;2024-01-11T07:42:58;16.83;;;12.77;;
46931;SDS011;32670;51.464;11.964;2024-01-11T07:45:24;18.63;;;12.93;;
46931;SDS011;32670;51.464;11.964;2024-01-11T07:47:49;14.10;;;12.60;;
46931;SDS011;32670;51.464;11.964;2024-01-11T07:50:14;15.47;;;12.60;;
46931;SDS011;32670;51.464;11.964;2024-01-11T07:52:40;17.33;;;13.27;;
46931;SDS011;32670;51.464;11.964;2024-01-11T07:55:10;16.33;;;12.17;;
46931;SDS011;32670;51.464;11.964;2024-01-11T07:57:37;13.80;;;12.40;;
46931;SDS011;32670;51.464;11.964;2024-01-11T08:00:03;15.53;;;12.50;;
46931;SDS011;32670;51.464;11.964;2024-01-11T08:02:31;13.97;;;12.07;;
46931;SDS011;32670;51.464;11.964;2024-01-11T08:04:57;17.43;;;13.03;;
46931;SDS011;32670;51.464;11.964;2024-01-11T08:07:24;15.27;;;12.40;;
46931;SDS011;32670;51.464;11.964;2024-01-11T08:09:50;13.90;;;12.33;;
46931;SDS011;32670;51.464;11.964;2024-01-11T08:12:16;13.00;;;11.70;;
46931;SDS011;32670;51.464;11.964;2024-01-11T08:14:41;13.13;;;11.73;;
46931;SDS011;32670;51.464;11.964;2024-01-11T08:17:07;11.93;;;10.73;;
46931;SDS011;32670;51.464;11.964;2024-01-11T08:19:33;13.23;;;11.93;;
46931;SDS011;32670;51.464;11.964;2024-01-11T08:21:59;13.03;;;11.40;;
46931;SDS011;32670;51.464;11.964;2024-01-11T08:24:25;12.70;;;11.40;;
46931;SDS011;32670;51.464;11.964;2024-01-11T08:26:51;14.87;;;11.53;;
46931;SDS011;32670;51.464;11.964;2024-01-11T08:29:17;15.33;;;11.90;;
46931;SDS011;32670;51.464;11.964;2024-01-11T08:31:44;12.63;;;11.33;;
46931;SDS011;32670;51.464;11.964;2024-01-11T08:34:13;14.00;;;12.50;;
46931;SDS011;32670;51.464;11.964;2024-01-11T08:36:38;13.27;;;11.37;;
46931;SDS011;32670;51.464;11.964;2024-01-11T08:39:04;12.30;;;10.93;;
46931;SDS011;32670;51.464;11.964;2024-01-11T08:41:31;13.77;;;12.30;;
46931;SDS011;32670;51.464;11.964;2024-01-11T08:43:56;15.23;;;12.17;;
46931;SDS011;32670;51.464;11.964;2024-01-11T08:46:24;13.10;;;11.70;;
46931;SDS011;32670;51.464;11.964;2024-01-11T08:48:50;12.80;;;10.67;;
46931;SDS011;32670;51.464;11.964;2024-01-11T08:51:16;11.87;;;10.67;;
46931;SDS011;32670;51.464;11.964;2024-01-11T08:53:42;12.67;;;10.80;;
46931;SDS011;32670;51.464;11.964;2024-01-11T08:56:07;12.27;;;10.97;;
46931;SDS011;32670;51.464;11.964;2024-01-11T08:58:32;13.80;;;10.93;;
46931;SDS011;32670;51.464;11.964;2024-01-11T09:00:58;12.73;;;10.77;;
46931;SDS011;32670;51.464;11.964;2024-01-11T09:03:24;11.47;;;10.20;;
46931;SDS011;32670;51.464;11.964;2024-01-11T09:05:50;12.13;;;10.70;;
46931;SDS011;32670;51.464;11.964;2024-01-11T09:08:15;11.50;;;10.30;;
46931;SDS011;32670;51.464;11.964;2024-01-11T09:10:41;13.97;;;11.67;;
46931;SDS011;32670;51.464;11.964;2024-01-11T09:13:06;12.80;;;10.53;;
46931;SDS011;32670;51.464;11.964;2024-01-11T09:15:32;11.43;;;10.10;;
46931;SDS011;32670;51.464;11.964;2024-01-11T09:17:58;12.30;;;11.03;;
46931;SDS011;32670;51.464;11.964;2024-01-11T09:20:27;12.30;;;10.80;;
46931;SDS011;32670;51.464;11.964;2024-01-11T09:22:53;11.77;;;10.03;;
46931;SDS011;32670;51.464;11.964;2024-01-11T09:25:19;10.63;;;9.60;;
46931;SDS011;32670;51.464;11.964;2024-01-11T09:27:44;11.37;;;9.67;;
46931;SDS011;32670;51.464;11.964;2024-01-11T09:30:10;11.13;;;9.97;;
46931;SDS011;32670;51.464;11.964;2024-01-11T09:32:35;11.23;;;10.10;;
46931;SDS011;32670;51.464;11.964;2024-01-11T09:35:02;10.87;;;9.73;;
46931;SDS011;32670;51.464;11.964;2024-01-11T09:37:29;11.13;;;10.03;;
46931;SDS011;32670;51.464;11.964;2024-01-11T09:39:55;11.63;;;10.23;;
46931;SDS011;32670;51.464;11.964;2024-01-11T09:42:21;11.60;;;10.40;;
46931;SDS011;32670;51.464;11.964;2024-01-11T09:44:47;11.90;;;10.30;;
46931;SDS011;32670;51.464;11.964;2024-01-11T09:47:13;10.87;;;9.77;;
46931;SDS011;32670;51.464;11.964;2024-01-11T09:49:42;12.20;;;10.90;;
46931;SDS011;32670;51.464;11.964;2024-01-11T09:52:09;11.30;;;10.10;;
46931;SDS011;32670;51.464;11.964;2024-01-11T09:54:38;10.97;;;9.87;;
46931;SDS011;32670;51.464;11.964;2024-01-11T09:57:05;10.23;;;9.17;;
46931;SDS011;32670;51.464;11.964;2024-01-11T09:59:32;11.67;;;10.43;;
46931;SDS011;32670;51.464;11.964;2024-01-11T10:01:58;11.10;;;9.60;;
46931;SDS011;32670;51.464;11.964;2024-01-11T10:04:25;10.47;;;9.37;;
46931;SDS011;32670;51.464;11.964;2024-01-11T10:06:52;10.73;;;9.20;;
46931;SDS011;32670;51.464;11.964;2024-01-11T10:09:18;11.07;;;9.87;;
46931;SDS011;32670;51.464;11.964;2024-01-11T10:11:44;10.40;;;9.37;;
46931;SDS011;32670;51.464;11.964;2024-01-11T10:14:12;11.13;;;9.87;;
46931;SDS011;32670;51.464;11.964;2024-01-11T10:16:37;10.80;;;9.77;;
46931;SDS011;32670;51.464;11.964;2024-01-11T10:19:03;10.37;;;9.33;;
46931;SDS011;32670;51.464;11.964;2024-01-11T10:21:28;12.10;;;10.90;;
46931;SDS011;32670;51.464;11.964;2024-01-11T10:23:55;10.33;;;9.33;;
46931;SDS011;32670;51.464;11.964;2024-01-11T10:26:24;9.77;;;8.80;;
46931;SDS011;32670;51.464;11.964;2024-01-11T10:28:49;10.33;;;9.00;;
46931;SDS011;32670;51.464;11.964;2024-01-11T10:31:15;10.87;;;9.77;;
46931;SDS011;32670;51.464;11.964;2024-01-11T10:33:40;10.60;;;9.60;;
46931;SDS011;32670;51.464;11.964;2024-01-11T10:36:06;11.73;;;10.00;;
46931;SDS011;32670;51.464;11.964;2024-01-11T10:38:38;11.60;;;9.20;;
46931;SDS011;32670;51.464;11.964;2024-01-11T10:41:04;13.63;;;9.87;;
46931;SDS011;32670;51.464;11.964;2024-01-11T10:43:31;10.00;;;8.97;;
46931;SDS011;32670;51.464;11.964;2024-01-11T10:46:00;9.90;;;9.00;;
46931;SDS011;32670;51.464;11.964;2024-01-11T10:48:29;10.47;;;9.37;;
46931;SDS011;32670;51.464;11.964;2024-01-11T10:50:57;10.17;;;9.17;;
46931;SDS011;32670;51.464;11.964;2024-01-11T10:53:31;10.00;;;9.00;;
46931;SDS011;32670;51.464;11.964;2024-01-11T10:56:05;9.97;;;8.97;;
46931;SDS011;32670;51.464;11.964;2024-01-11T10:58:34;10.30;;;9.20;;
46931;SDS011;32670;51.464;11.964;2024-01-11T11:01:00;9.83;;;8.83;;
46931;SDS011;32670;51.464;11.964;2024-01-11T11:03:27;10.57;;;9.47;;
46931;SDS011;32670;51.464;11.964;2024-01-11T11:05:58;10.57;;;9.53;;
46931;SDS011;32670;51.464;11.964;2024-01-11T11:08:24;9.80;;;8.87;;
46931;SDS011;32670;51.464;11.964;2024-01-11T11:11:02;9.90;;;8.90;;
46931;SDS011;32670;51.464;11.964;2024-01-11T11:13:30;9.97;;;9.07;;
46931;SDS011;32670;51.464;11.964;2024-01-11T11:15:57;9.50;;;8.60;;
46931;SDS011;32670;51.464;11.964;2024-01-11T11:18:23;9.80;;;8.90;;
46931;SDS011;32670;51.464;11.964;2024-01-11T11:20:49;9.53;;;8.63;;
46931;SDS011;32670;51.464;11.964;2024-01-11T11:23:16;9.70;;;8.77;;
46931;SDS011;32670;51.464;11.964;2024-01-11T11:25:44;9.93;;;8.60;;
46931;SDS011;32670;51.464;11.964;2024-01-11T11:28:12;8.33;;;7.53;;
46931;SDS011;32670;51.464;11.964;2024-01-11T11:30:40;9.50;;;8.60;;
46931;SDS011;32670;51.464;11.964;2024-01-11T11:33:08;9.60;;;8.60;;
46931;SDS011;32670;51.464;11.964;2024-01-11T11:35:47;9.00;;;8.17;;
46931;SDS011;32670;51.464;11.964;2024-01-11T11:38:49;9.13;;;8.33;;
46931;SDS011;32670;51.464;11.964;2024-01-11T11:41:08;8.73;;;7.93;;
46931;SDS011;32670;51.464;11.964;2024-01-11T11:43:33;9.03;;;8.13;;
46931;SDS011;32670;51.464;11.964;2024-01-11T11:46:01;9.43;;;8.53;;
46931;SDS011;32670;51.464;11.964;2024-01-11T11:53:35;8.63;;;7.83;;
46931;SDS011;32670;51.464;11.964;2024-01-11T11:56:01;8.70;;;7.80;;
46931;SDS011;32670;51.464;11.964;2024-01-11T11:58:28;9.00;;;8.10;;
46931;SDS011;32670;51.464;11.964;2024-01-11T12:00:57;8.67;;;7.80;;
46931;SDS011;32670;51.464;11.964;2024-01-11T12:03:31;8.50;;;7.70;;
46931;SDS011;32670;51.464;11.964;2024-01-11T12:06:05;8.37;;;7.57;;
46931;SDS011;32670;51.464;11.964;2024-01-11T12:08:35;9.50;;;8.57;;
46931;SDS011;32670;51.464;11.964;2024-01-11T12:11:01;9.20;;;8.37;;
46931;SDS011;32670;51.464;11.964;2024-01-11T12:13:28;9.50;;;8.50;;
46931;SDS011;32670;51.464;11.964;2024-01-11T12:15:55;11.23;;;10.20;;
46931;SDS011;32670;51.464;11.964;2024-01-11T12:18:20;11.60;;;10.50;;
46931;SDS011;32670;51.464;11.964;2024-01-11T12:20:46;12.27;;;11.07;;
46931;SDS011;32670;51.464;11.964;2024-01-11T12:23:11;11.03;;;9.80;;
46931;SDS011;32670;51.464;11.964;2024-01-11T12:25:39;11.47;;;8.87;;
46931;SDS011;32670;51.464;11.964;2024-01-11T12:28:05;11.30;;;9.67;;
46931;SDS011;32670;51.464;11.964;2024-01-11T12:30:31;10.97;;;9.57;;
46931;SDS011;32670;51.464;11.964;2024-01-11T12:32:57;10.17;;;9.17;;
46931;SDS011;32670;51.464;11.964;2024-01-11T12:35:23;9.77;;;8.80;;
46931;SDS011;32670;51.464;11.964;2024-01-11T12:37:55;9.73;;;8.77;;
46931;SDS011;32670;51.464;11.964;2024-01-11T12:40:24;9.83;;;8.93;;
46931;SDS011;32670;51.464;11.964;2024-01-11T12:42:52;10.13;;;9.13;;
46931;SDS011;32670;51.464;11.964;2024-01-11T12:45:17;10.33;;;9.23;;
46931;SDS011;32670;51.464;11.964;2024-01-11T12:47:43;9.63;;;8.73;;
46931;SDS011;32670;51.464;11.964;2024-01-11T12:50:09;10.97;;;9.73;;
46931;SDS011;32670;51.464;11.964;2024-01-11T12:52:36;9.30;;;8.40;;
46931;SDS011;32670;51.464;11.964;2024-01-11T12:55:01;10.20;;;9.17;;
46931;SDS011;32670;51.464;11.964;2024-01-11T12:57:27;9.33;;;8.43;;
46931;SDS011;32670;51.464;11.964;2024-01-11T12:59:53;9.47;;;8.57;;
46931;SDS011;32670;51.464;11.964;2024-01-11T13:02:19;9.13;;;8.23;;
46931;SDS011;32670;51.464;11.964;2024-01-11T13:04:45;9.63;;;8.73;;
46931;SDS011;32670;51.464;11.964;2024-01-11T13:07:11;9.23;;;8.33;;
46931;SDS011;32670;51.464;11.964;2024-01-11T13:09:37;10.03;;;9.13;;
46931;SDS011;32670;51.464;11.964;2024-01-11T13:12:03;9.93;;;9.03;;
46931;SDS011;32670;51.464;11.964;2024-01-11T13:14:29;9.60;;;8.63;;
46931;SDS011;32670;51.464;11.964;2024-01-11T13:16:54;10.70;;;9.40;;
46931;SDS011;32670;51.464;11.964;2024-01-11T13:19:20;9.87;;;8.87;;
46931;SDS011;32670;51.464;11.964;2024-01-11T13:21:45;9.30;;;8.50;;
46931;SDS011;32670;51.464;11.964;2024-01-11T13:24:11;9.33;;;8.43;;
46931;SDS011;32670;51.464;11.964;2024-01-11T13:26:37;12.30;;;8.93;;
46931;SDS011;32670;51.464;11.964;2024-01-11T13:29:04;9.73;;;8.63;;
46931;SDS011;32670;51.464;11.964;2024-01-11T13:31:30;9.47;;;8.53;;
46931;SDS011;32670;51.464;11.964;2024-01-11T13:33:56;10.20;;;9.20;;
46931;SDS011;32670;51.464;11.964;2024-01-11T13:36:22;11.77;;;9.30;;
46931;SDS011;32670;51.464;11.964;2024-01-11T13:38:48;10.70;;;9.07;;
46931;SDS011;32670;51.464;11.964;2024-01-11T13:41:15;11.00;;;9.30;;
46931;SDS011;32670;51.464;11.964;2024-01-11T13:43:41;10.07;;;9.03;;
46931;SDS011;32670;51.464;11.964;2024-01-11T13:46:10;10.10;;;9.20;;
46931;SDS011;32670;51.464;11.964;2024-01-11T13:48:37;9.63;;;8.70;;
46931;SDS011;32670;51.464;11.964;2024-01-11T13:51:03;9.50;;;8.60;;
46931;SDS011;32670;51.464;11.964;2024-01-11T13:53:29;9.97;;;8.97;;
46931;SDS011;32670;51.464;11.964;2024-01-11T13:55:55;9.13;;;8.27;;
46931;SDS011;32670;51.464;11.964;2024-01-11T13:58:21;9.03;;;8.23;;
46931;SDS011;32670;51.464;11.964;2024-01-11T14:00:47;9.43;;;8.53;;
46931;SDS011;32670;51.464;11.964;2024-01-11T14:03:12;9.00;;;8.10;;
46931;SDS011;32670;51.464;11.964;2024-01-11T14:05:38;9.30;;;8.40;;
46931;SDS011;32670;51.464;11.964;2024-01-11T14:08:04;9.10;;;8.20;;
46931;SDS011;32670;51.464;11.964;2024-01-11T14:10:32;8.90;;;8.10;;
46931;SDS011;32670;51.464;11.964;2024-01-11T14:13:02;9.33;;;8.50;;
46931;SDS011;32670;51.464;11.964;2024-01-11T14:15:28;8.90;;;8.10;;
46931;SDS011;32670;51.464;11.964;2024-01-11T14:17:53;10.20;;;8.17;;
46931;SDS011;32670;51.464;11.964;2024-01-11T14:20:19;8.50;;;7.70;;
46931;SDS011;32670;51.464;11.964;2024-01-11T14:22:46;8.70;;;7.87;;
46931;SDS011;32670;51.464;11.964;2024-01-11T14:25:14;9.03;;;8.13;;